sensor_id;sensor_type;location;lat;lon;timestamp;P1;P2;P0
69746;PMS7003;57018;50.278;19.134;2023-03-01T00:00:45;145.00;126.50;73.00
69746;PMS7003;57018;50.278;19.134;2023-03-01T00:03:15;131.00;113.00;71.50
69746;PMS7003;57018;50.278;19.134;2023-03-01T00:05:45;137.50;113.50;68.00
69746;PMS7003;57018;50.278;19.134;2023-03-01T00:08:15;129.00;111.00;64.00
69746;PMS7003;57018;50.278;19.134;2023-03-01T00:10:45;128.00;103.00;68.50
69746;PMS7003;57018;50.278;19.134;2023-03-01T00:13:15;126.50;109.00;67.00
69746;PMS7003;57018;50.278;19.134;2023-03-01T00:15:45;89.00;63.50;20.00
69746;PMS7003;57018;50.278;19.134;2023-03-01T00:18:14;124.00;108.00;67.00
69746;PMS7003;57018;50.278;19.134;2023-03-01T00:20:50;129.00;109.00;68.50
69746;PMS7003;57018;50.278;19.134;2023-03-01T00:23:20;121.00;111.00;63.00
69746;PMS7003;57018;50.278;19.134;2023-03-01T00:25:51;132.00;112.00;73.00
69746;PMS7003;57018;50.278;19.134;2023-03-01T00:28:21;126.50;106.00;59.00
69746;PMS7003;57018;50.278;19.134;2023-03-01T00:30:51;120.50;99.50;52.00
69746;PMS7003;57018;50.278;19.134;2023-03-01T00:33:21;114.50;95.50;58.00
69746;PMS7003;57018;50.278;19.134;2023-03-01T00:35:51;129.00;106.00;64.00
69746;PMS7003;57018;50.278;19.134;2023-03-01T00:38:21;135.00;115.00;67.00
69746;PMS7003;57018;50.278;19.134;2023-03-01T00:40:51;132.00;109.00;61.00
69746;PMS7003;57018;50.278;19.134;2023-03-01T00:43:20;132.00;115.00;64.00
69746;PMS7003;57018;50.278;19.134;2023-03-01T00:45:50;141.50;119.50;66.50
69746;PMS7003;57018;50.278;19.134;2023-03-01T00:48:20;117.00;97.00;52.00
69746;PMS7003;57018;50.278;19.134;2023-03-01T00:50:50;122.50;109.00;60.50
69746;PMS7003;57018;50.278;19.134;2023-03-01T00:53:20;119.50;104.50;64.00
69746;PMS7003;57018;50.278;19.134;2023-03-01T00:55:50;120.00;105.00;66.00
69746;PMS7003;57018;50.278;19.134;2023-03-01T01:00:48;124.50;110.50;69.00
69746;PMS7003;57018;50.278;19.134;2023-03-01T01:03:19;129.00;113.67;70.67
69746;PMS7003;57018;50.278;19.134;2023-03-01T01:05:51;154.00;127.00;76.00
69746;PMS7003;57018;50.278;19.134;2023-03-01T01:08:21;151.50;131.50;76.50
69746;PMS7003;57018;50.278;19.134;2023-03-01T01:10:51;132.50;117.50;68.50
69746;PMS7003;57018;50.278;19.134;2023-03-01T01:13:21;122.00;102.50;66.50
69746;PMS7003;57018;50.278;19.134;2023-03-01T01:15:51;123.50;105.50;62.50
69746;PMS7003;57018;50.278;19.134;2023-03-01T01:18:20;120.00;103.00;63.00
69746;PMS7003;57018;50.278;19.134;2023-03-01T01:20:50;145.00;130.00;73.00
69746;PMS7003;57018;50.278;19.134;2023-03-01T01:23:20;143.50;127.00;75.50
69746;PMS7003;57018;50.278;19.134;2023-03-01T01:25:50;135.00;118.00;75.00
69746;PMS7003;57018;50.278;19.134;2023-03-01T01:28:20;131.00;113.50;71.00
69746;PMS7003;57018;50.278;19.134;2023-03-01T01:30:49;137.00;109.00;64.00
69746;PMS7003;57018;50.278;19.134;2023-03-01T01:33:19;150.50;133.00;74.50
69746;PMS7003;57018;50.278;19.134;2023-03-01T01:35:49;138.00;126.00;70.00
69746;PMS7003;57018;50.278;19.134;2023-03-01T01:43:24;127.00;111.00;64.00
69746;PMS7003;57018;50.278;19.134;2023-03-01T01:48:29;126.50;110.00;64.00
69746;PMS7003;57018;50.278;19.134;2023-03-01T02:17:04;125.67;104.67;62.67
69746;PMS7003;57018;50.278;19.134;2023-03-01T02:34:42;129.50;113.50;64.75
69746;PMS7003;57018;50.278;19.134;2023-03-01T02:44:51;126.50;112.50;74.00
69746;PMS7003;57018;50.278;19.134;2023-03-01T02:47:21;120.50;108.00;64.00
69746;PMS7003;57018;50.278;19.134;2023-03-01T02:49:51;117.00;97.00;67.00
69746;PMS7003;57018;50.278;19.134;2023-03-01T02:55:06;121.00;111.00;70.00
69746;PMS7003;57018;50.278;19.134;2023-03-01T02:57:42;118.00;105.50;61.00
69746;PMS7003;57018;50.278;19.134;2023-03-01T03:05:19;119.33;96.67;61.67
69746;PMS7003;57018;50.278;19.134;2023-03-01T03:17:55;157.50;139.50;82.00
69746;PMS7003;57018;50.278;19.134;2023-03-01T03:22:57;127.00;106.00;58.00
69746;PMS7003;57018;50.278;19.134;2023-03-01T03:46:26;120.00;108.00;64.00
69746;PMS7003;57018;50.278;19.134;2023-03-01T03:59:18;129.00;109.00;63.00
69746;PMS7003;57018;50.278;19.134;2023-03-01T04:01:48;117.00;100.00;64.00
69746;PMS7003;57018;50.278;19.134;2023-03-01T04:04:18;120.00;103.00;58.00
69746;PMS7003;57018;50.278;19.134;2023-03-01T04:06:47;117.00;99.00;61.00
69746;PMS7003;57018;50.278;19.134;2023-03-01T04:09:17;109.00;90.00;54.00
69746;PMS7003;57018;50.278;19.134;2023-03-01T04:11:47;115.50;98.50;59.50
69746;PMS7003;57018;50.278;19.134;2023-03-01T04:14:17;129.00;106.00;61.00
69746;PMS7003;57018;50.278;19.134;2023-03-01T04:16:47;115.00;99.00;57.00
69746;PMS7003;57018;50.278;19.134;2023-03-01T04:19:16;112.00;94.00;55.00
69746;PMS7003;57018;50.278;19.134;2023-03-01T04:21:46;91.00;63.00;27.00
69746;PMS7003;57018;50.278;19.134;2023-03-01T04:24:16;114.00;97.00;58.00
69746;PMS7003;57018;50.278;19.134;2023-03-01T04:34:36;105.00;85.00;54.00
69746;PMS7003;57018;50.278;19.134;2023-03-01T04:37:06;114.00;85.00;51.00
69746;PMS7003;57018;50.278;19.134;2023-03-01T04:39:36;105.00;82.00;54.00
69746;PMS7003;57018;50.278;19.134;2023-03-01T04:44:43;112.00;94.00;55.00
69746;PMS7003;57018;50.278;19.134;2023-03-01T04:49:44;115.00;99.00;61.00
69746;PMS7003;57018;50.278;19.134;2023-03-01T04:54:42;108.00;93.50;57.50
69746;PMS7003;57018;50.278;19.134;2023-03-01T04:57:12;107.00;84.00;52.00
69746;PMS7003;57018;50.278;19.134;2023-03-01T04:59:42;105.50;86.50;53.00
69746;PMS7003;57018;50.278;19.134;2023-03-01T05:02:11;108.50;86.00;54.50
69746;PMS7003;57018;50.278;19.134;2023-03-01T05:04:42;111.50;92.00;55.00
69746;PMS7003;57018;50.278;19.134;2023-03-01T05:07:11;141.50;119.50;72.50
69746;PMS7003;57018;50.278;19.134;2023-03-01T05:09:46;121.00;105.00;61.00
69746;PMS7003;57018;50.278;19.134;2023-03-01T05:12:15;119.00;101.50;60.50
69746;PMS7003;57018;50.278;19.134;2023-03-01T05:14:45;143.00;125.50;74.00
69746;PMS7003;57018;50.278;19.134;2023-03-01T05:17:15;116.67;96.67;56.00
69746;PMS7003;57018;50.278;19.134;2023-03-01T05:19:45;138.00;120.00;76.00
69746;PMS7003;57018;50.278;19.134;2023-03-01T05:22:15;133.50;116.50;70.50
69746;PMS7003;57018;50.278;19.134;2023-03-01T05:24:45;134.00;114.50;67.00
69746;PMS7003;57018;50.278;19.134;2023-03-01T05:27:15;168.00;142.00;79.00
69746;PMS7003;57018;50.278;19.134;2023-03-01T05:29:48;148.00;127.00;72.50
69746;PMS7003;57018;50.278;19.134;2023-03-01T05:32:18;136.00;115.00;63.00
69746;PMS7003;57018;50.278;19.134;2023-03-01T05:34:51;139.00;122.00;75.50
69746;PMS7003;57018;50.278;19.134;2023-03-01T05:39:50;141.50;127.00;77.00
69746;PMS7003;57018;50.278;19.134;2023-03-01T05:42:19;137.00;116.50;70.00
69746;PMS7003;57018;50.278;19.134;2023-03-01T05:44:49;132.50;117.75;73.75
69746;PMS7003;57018;50.278;19.134;2023-03-01T05:47:19;129.00;115.00;69.00
69746;PMS7003;57018;50.278;19.134;2023-03-01T05:49:49;122.00;102.50;64.00
69746;PMS7003;57018;50.278;19.134;2023-03-01T05:52:19;126.33;105.00;60.33
69746;PMS7003;57018;50.278;19.134;2023-03-01T05:54:49;149.50;135.50;75.50
69746;PMS7003;57018;50.278;19.134;2023-03-01T05:59:47;121.00;103.00;58.00
69746;PMS7003;57018;50.278;19.134;2023-03-01T06:02:17;120.00;103.00;58.00
69746;PMS7003;57018;50.278;19.134;2023-03-01T06:04:46;118.00;94.00;58.00
69746;PMS7003;57018;50.278;19.134;2023-03-01T06:07:16;117.50;101.00;55.00
69746;PMS7003;57018;50.278;19.134;2023-03-01T06:09:46;124.00;100.00;58.00
69746;PMS7003;57018;50.278;19.134;2023-03-01T06:12:16;124.00;97.00;58.00
69746;PMS7003;57018;50.278;19.134;2023-03-01T06:14:46;121.00;100.33;61.00
69746;PMS7003;57018;50.278;19.134;2023-03-01T06:17:16;120.00;100.50;65.50
69746;PMS7003;57018;50.278;19.134;2023-03-01T06:19:46;116.50;104.00;57.50
69746;PMS7003;57018;50.278;19.134;2023-03-01T06:22:16;130.00;109.00;64.00
69746;PMS7003;57018;50.278;19.134;2023-03-01T06:24:46;130.00;115.00;68.50
69746;PMS7003;57018;50.278;19.134;2023-03-01T06:27:15;120.00;105.00;63.00
69746;PMS7003;57018;50.278;19.134;2023-03-01T06:29:45;131.33;115.33;65.00
69746;PMS7003;57018;50.278;19.134;2023-03-01T06:32:15;147.00;127.67;77.67
69746;PMS7003;57018;50.278;19.134;2023-03-01T06:34:45;157.00;130.00;85.00
69746;PMS7003;57018;50.278;19.134;2023-03-01T06:37:15;166.00;142.50;86.00
69746;PMS7003;57018;50.278;19.134;2023-03-01T06:39:45;163.00;147.50;86.50
69746;PMS7003;57018;50.278;19.134;2023-03-01T06:44:44;160.00;142.00;87.00
69746;PMS7003;57018;50.278;19.134;2023-03-01T06:47:14;157.00;143.00;84.00
69746;PMS7003;57018;50.278;19.134;2023-03-01T06:49:44;133.00;106.00;63.50
69746;PMS7003;57018;50.278;19.134;2023-03-01T06:52:14;142.00;120.00;76.00
69746;PMS7003;57018;50.278;19.134;2023-03-01T06:54:44;131.50;119.50;70.00
69746;PMS7003;57018;50.278;19.134;2023-03-01T06:57:14;135.00;118.00;67.00
69746;PMS7003;57018;50.278;19.134;2023-03-01T06:59:47;107.50;89.50;53.00
69746;PMS7003;57018;50.278;19.134;2023-03-01T07:02:17;129.00;114.00;68.00
69746;PMS7003;57018;50.278;19.134;2023-03-01T07:04:47;114.00;93.00;53.00
69746;PMS7003;57018;50.278;19.134;2023-03-01T07:07:18;120.00;101.00;63.50
69746;PMS7003;57018;50.278;19.134;2023-03-01T07:12:16;118.50;101.50;53.50
69746;PMS7003;57018;50.278;19.134;2023-03-01T07:17:14;98.00;79.00;51.00
69746;PMS7003;57018;50.278;19.134;2023-03-01T07:19:44;103.50;80.50;53.00
69746;PMS7003;57018;50.278;19.134;2023-03-01T07:22:14;115.00;94.00;56.00
69746;PMS7003;57018;50.278;19.134;2023-03-01T07:24:44;120.00;103.00;62.00
69746;PMS7003;57018;50.278;19.134;2023-03-01T07:27:13;114.00;94.00;60.00
69746;PMS7003;57018;50.278;19.134;2023-03-01T07:32:11;116.00;101.50;63.00
69746;PMS7003;57018;50.278;19.134;2023-03-01T07:34:41;124.00;103.50;57.00
69746;PMS7003;57018;50.278;19.134;2023-03-01T07:37:11;129.67;121.67;74.00
69746;PMS7003;57018;50.278;19.134;2023-03-01T07:39:47;156.67;133.00;83.00
69746;PMS7003;57018;50.278;19.134;2023-03-01T07:42:17;169.00;145.00;87.00
69746;PMS7003;57018;50.278;19.134;2023-03-01T07:44:47;163.50;144.50;90.00
69746;PMS7003;57018;50.278;19.134;2023-03-01T07:47:17;162.00;143.00;86.00
69746;PMS7003;57018;50.278;19.134;2023-03-01T07:49:47;156.00;139.00;83.00
69746;PMS7003;57018;50.278;19.134;2023-03-01T07:52:16;133.00;110.00;53.00
69746;PMS7003;57018;50.278;19.134;2023-03-01T07:54:46;147.00;124.00;71.33
69746;PMS7003;57018;50.278;19.134;2023-03-01T07:57:16;139.50;113.00;76.00
69746;PMS7003;57018;50.278;19.134;2023-03-01T07:59:46;150.67;137.00;78.33
69746;PMS7003;57018;50.278;19.134;2023-03-01T08:02:16;113.50;105.50;68.00
69746;PMS7003;57018;50.278;19.134;2023-03-01T08:04:49;115.50;103.00;65.50
69746;PMS7003;57018;50.278;19.134;2023-03-01T08:09:47;104.67;88.33;53.33
69746;PMS7003;57018;50.278;19.134;2023-03-01T08:12:20;129.00;113.00;68.00
69746;PMS7003;57018;50.278;19.134;2023-03-01T08:14:50;117.00;111.00;63.00
69746;PMS7003;57018;50.278;19.134;2023-03-01T08:17:20;132.00;123.00;73.00
69746;PMS7003;57018;50.278;19.134;2023-03-01T08:19:50;119.50;102.00;72.50
69746;PMS7003;57018;50.278;19.134;2023-03-01T08:22:20;142.00;117.00;74.00
69746;PMS7003;57018;50.278;19.134;2023-03-01T08:24:50;132.00;119.00;75.00
69746;PMS7003;57018;50.278;19.134;2023-03-01T08:27:22;130.00;116.50;74.00
69746;PMS7003;57018;50.278;19.134;2023-03-01T08:29:52;133.00;113.00;68.00
69746;PMS7003;57018;50.278;19.134;2023-03-01T08:32:22;106.00;90.00;61.00
69746;PMS7003;57018;50.278;19.134;2023-03-01T08:34:52;119.00;99.00;61.00
69746;PMS7003;57018;50.278;19.134;2023-03-01T08:37:22;115.00;100.50;64.50
69746;PMS7003;57018;50.278;19.134;2023-03-01T08:39:53;115.50;105.50;61.50
69746;PMS7003;57018;50.278;19.134;2023-03-01T08:42:22;109.00;98.00;60.00
69746;PMS7003;57018;50.278;19.134;2023-03-01T08:44:52;104.00;95.50;58.00
69746;PMS7003;57018;50.278;19.134;2023-03-01T08:47:23;103.00;89.00;51.00
69746;PMS7003;57018;50.278;19.134;2023-03-01T08:49:54;93.00;71.00;50.00
69746;PMS7003;57018;50.278;19.134;2023-03-01T08:52:24;98.00;76.00;49.00
69746;PMS7003;57018;50.278;19.134;2023-03-01T08:54:54;87.00;67.00;45.00
69746;PMS7003;57018;50.278;19.134;2023-03-01T08:59:54;85.00;63.75;43.00
69746;PMS7003;57018;50.278;19.134;2023-03-01T09:02:24;89.00;67.00;44.00
69746;PMS7003;57018;50.278;19.134;2023-03-01T09:04:54;85.00;66.00;43.00
69746;PMS7003;57018;50.278;19.134;2023-03-01T09:07:24;74.00;58.00;38.50
69746;PMS7003;57018;50.278;19.134;2023-03-01T09:09:56;79.00;62.00;36.00
69746;PMS7003;57018;50.278;19.134;2023-03-01T09:12:26;76.00;61.00;40.00
69746;PMS7003;57018;50.278;19.134;2023-03-01T09:14:56;69.00;53.00;30.00
69746;PMS7003;57018;50.278;19.134;2023-03-01T09:17:26;74.00;54.00;33.00
69746;PMS7003;57018;50.278;19.134;2023-03-01T09:19:56;76.00;56.00;36.00
69746;PMS7003;57018;50.278;19.134;2023-03-01T09:22:26;77.00;62.00;34.00
69746;PMS7003;57018;50.278;19.134;2023-03-01T09:24:56;79.00;58.00;37.00
69746;PMS7003;57018;50.278;19.134;2023-03-01T09:27:26;73.50;58.00;36.00
69746;PMS7003;57018;50.278;19.134;2023-03-01T09:29:56;69.00;56.00;35.00
69746;PMS7003;57018;50.278;19.134;2023-03-01T09:34:55;71.00;56.00;34.00
69746;PMS7003;57018;50.278;19.134;2023-03-01T09:37:34;62.00;51.00;35.00
69746;PMS7003;57018;50.278;19.134;2023-03-01T09:40:06;60.00;46.00;29.00
69746;PMS7003;57018;50.278;19.134;2023-03-01T09:42:46;56.00;42.00;23.00
69746;PMS7003;57018;50.278;19.134;2023-03-01T09:47:54;61.00;47.00;28.00
69746;PMS7003;57018;50.278;19.134;2023-03-01T09:50:25;57.00;45.00;28.00
69746;PMS7003;57018;50.278;19.134;2023-03-01T09:53:01;59.00;46.00;28.00
69746;PMS7003;57018;50.278;19.134;2023-03-01T09:55:37;39.00;35.00;25.00
69746;PMS7003;57018;50.278;19.134;2023-03-01T09:58:31;55.50;42.00;26.00
69746;PMS7003;57018;50.278;19.134;2023-03-01T10:01:10;56.00;44.50;28.00
69746;PMS7003;57018;50.278;19.134;2023-03-01T10:03:57;51.50;41.50;25.50
69746;PMS7003;57018;50.278;19.134;2023-03-01T10:06:34;51.00;44.00;28.00
69746;PMS7003;57018;50.278;19.134;2023-03-01T10:09:05;50.33;40.00;26.00
69746;PMS7003;57018;50.278;19.134;2023-03-01T10:11:41;56.00;41.00;25.00
69746;PMS7003;57018;50.278;19.134;2023-03-01T10:17:03;41.33;37.67;25.00
69746;PMS7003;57018;50.278;19.134;2023-03-01T10:19:40;53.00;42.00;26.00
69746;PMS7003;57018;50.278;19.134;2023-03-01T10:22:13;47.00;42.00;28.00
69746;PMS7003;57018;50.278;19.134;2023-03-01T10:24:48;48.50;40.50;26.50
69746;PMS7003;57018;50.278;19.134;2023-03-01T10:27:21;44.00;37.00;22.00
69746;PMS7003;57018;50.278;19.134;2023-03-01T10:29:54;41.00;38.00;22.00
69746;PMS7003;57018;50.278;19.134;2023-03-01T10:32:34;45.00;37.00;24.00
69746;PMS7003;57018;50.278;19.134;2023-03-01T10:35:15;51.50;39.00;24.50
69746;PMS7003;57018;50.278;19.134;2023-03-01T10:37:57;44.00;39.00;27.00
69746;PMS7003;57018;50.278;19.134;2023-03-01T10:40:30;48.00;39.00;26.00
69746;PMS7003;57018;50.278;19.134;2023-03-01T10:43:01;44.00;40.00;25.00
69746;PMS7003;57018;50.278;19.134;2023-03-01T10:45:33;58.00;44.50;27.50
69746;PMS7003;57018;50.278;19.134;2023-03-01T10:48:09;44.50;39.00;24.00
69746;PMS7003;57018;50.278;19.134;2023-03-01T10:50:44;58.00;45.00;29.00
69746;PMS7003;57018;50.278;19.134;2023-03-01T10:53:26;49.33;43.00;28.00
69746;PMS7003;57018;50.278;19.134;2023-03-01T10:56:00;59.00;47.00;28.00
69746;PMS7003;57018;50.278;19.134;2023-03-01T10:58:33;60.50;47.50;29.00
69746;PMS7003;57018;50.278;19.134;2023-03-01T11:01:05;67.00;51.00;32.00
69746;PMS7003;57018;50.278;19.134;2023-03-01T11:04:03;76.00;57.00;35.50
69746;PMS7003;57018;50.278;19.134;2023-03-01T11:06:39;70.00;56.00;34.00
69746;PMS7003;57018;50.278;19.134;2023-03-01T11:09:17;66.00;53.00;33.00
69746;PMS7003;57018;50.278;19.134;2023-03-01T11:11:52;64.00;49.00;30.00
69746;PMS7003;57018;50.278;19.134;2023-03-01T11:14:23;62.00;48.00;29.00
69746;PMS7003;57018;50.278;19.134;2023-03-01T11:17:11;58.00;46.00;29.00
69746;PMS7003;57018;50.278;19.134;2023-03-01T11:19:47;60.00;48.00;29.00
69746;PMS7003;57018;50.278;19.134;2023-03-01T11:22:33;56.00;44.00;28.00
69746;PMS7003;57018;50.278;19.134;2023-03-01T11:25:07;51.50;40.00;25.00
69746;PMS7003;57018;50.278;19.134;2023-03-01T11:27:43;48.00;42.00;25.00
69746;PMS7003;57018;50.278;19.134;2023-03-01T11:30:15;47.00;37.50;24.00
69746;PMS7003;57018;50.278;19.134;2023-03-01T11:35:34;46.00;40.00;25.00
69746;PMS7003;57018;50.278;19.134;2023-03-01T11:38:12;49.00;40.50;27.00
69746;PMS7003;57018;50.278;19.134;2023-03-01T11:40:49;46.50;41.50;27.00
69746;PMS7003;57018;50.278;19.134;2023-03-01T11:43:28;54.00;43.00;24.00
69746;PMS7003;57018;50.278;19.134;2023-03-01T11:46:08;51.00;42.50;27.50
69746;PMS7003;57018;50.278;19.134;2023-03-01T11:49:01;48.00;39.00;25.50
69746;PMS7003;57018;50.278;19.134;2023-03-01T11:51:44;47.00;40.00;25.00
69746;PMS7003;57018;50.278;19.134;2023-03-01T11:54:29;39.00;35.00;24.00
69746;PMS7003;57018;50.278;19.134;2023-03-01T11:57:11;54.00;43.00;24.00
69746;PMS7003;57018;50.278;19.134;2023-03-01T12:06:07;39.50;35.00;23.50
69746;PMS7003;57018;50.278;19.134;2023-03-01T12:08:54;42.50;38.00;23.50
69746;PMS7003;57018;50.278;19.134;2023-03-01T12:11:41;46.50;40.50;26.00
69746;PMS7003;57018;50.278;19.134;2023-03-01T12:14:37;49.00;40.00;27.00
69746;PMS7003;57018;50.278;19.134;2023-03-01T12:17:20;40.00;36.00;24.00
69746;PMS7003;57018;50.278;19.134;2023-03-01T12:20:25;51.50;42.00;27.00
69746;PMS7003;57018;50.278;19.134;2023-03-01T12:26:08;41.00;35.50;24.50
69746;PMS7003;57018;50.278;19.134;2023-03-01T12:28:51;50.00;40.00;25.00
69746;PMS7003;57018;50.278;19.134;2023-03-01T12:34:26;45.00;39.00;24.00
69746;PMS7003;57018;50.278;19.134;2023-03-01T12:37:15;44.00;34.00;22.00
69746;PMS7003;57018;50.278;19.134;2023-03-01T12:39:58;48.50;36.50;21.00
69746;PMS7003;57018;50.278;19.134;2023-03-01T12:42:57;38.00;37.00;24.00
69746;PMS7003;57018;50.278;19.134;2023-03-01T12:45:39;40.00;34.00;21.00
69746;PMS7003;57018;50.278;19.134;2023-03-01T12:48:34;44.00;37.00;24.00
69746;PMS7003;57018;50.278;19.134;2023-03-01T12:51:10;53.00;42.50;27.00
69746;PMS7003;57018;50.278;19.134;2023-03-01T12:53:44;42.00;38.00;24.00
69746;PMS7003;57018;50.278;19.134;2023-03-01T12:56:16;41.00;35.00;22.00
69746;PMS7003;57018;50.278;19.134;2023-03-01T12:58:50;37.00;33.00;22.00
69746;PMS7003;57018;50.278;19.134;2023-03-01T13:01:31;46.00;40.00;25.00
69746;PMS7003;57018;50.278;19.134;2023-03-01T13:04:18;46.00;37.00;25.00
69746;PMS7003;57018;50.278;19.134;2023-03-01T13:07:00;46.00;40.00;25.00
69746;PMS7003;57018;50.278;19.134;2023-03-01T13:09:40;43.50;37.00;23.50
69746;PMS7003;57018;50.278;19.134;2023-03-01T13:15:27;46.00;39.33;22.33
69746;PMS7003;57018;50.278;19.134;2023-03-01T13:17:59;42.00;36.50;23.50
69746;PMS7003;57018;50.278;19.134;2023-03-01T13:20:46;35.00;32.00;21.00
69746;PMS7003;57018;50.278;19.134;2023-03-01T13:23:25;34.00;32.50;23.50
69746;PMS7003;57018;50.278;19.134;2023-03-01T13:26:01;44.00;35.00;23.50
69746;PMS7003;57018;50.278;19.134;2023-03-01T13:28:44;43.00;36.00;23.00
69746;PMS7003;57018;50.278;19.134;2023-03-01T13:34:41;34.00;27.00;17.00
69746;PMS7003;57018;50.278;19.134;2023-03-01T13:37:20;34.50;30.50;17.00
69746;PMS7003;57018;50.278;19.134;2023-03-01T13:39:56;39.00;35.50;23.00
69746;PMS7003;57018;50.278;19.134;2023-03-01T13:42:41;32.00;29.00;20.00
69746;PMS7003;57018;50.278;19.134;2023-03-01T13:45:17;40.50;36.00;21.00
69746;PMS7003;57018;50.278;19.134;2023-03-01T13:47:53;38.00;35.00;23.00
69746;PMS7003;57018;50.278;19.134;2023-03-01T13:50:27;37.50;35.50;21.50
69746;PMS7003;57018;50.278;19.134;2023-03-01T13:53:02;36.00;31.00;20.50
69746;PMS7003;57018;50.278;19.134;2023-03-01T13:55:36;35.00;32.00;20.00
69746;PMS7003;57018;50.278;19.134;2023-03-01T13:58:16;29.50;25.50;20.50
69746;PMS7003;57018;50.278;19.134;2023-03-01T14:03:22;37.25;32.50;21.00
69746;PMS7003;57018;50.278;19.134;2023-03-01T14:06:00;32.00;28.00;16.00
69746;PMS7003;57018;50.278;19.134;2023-03-01T14:08:35;32.00;31.00;20.00
69746;PMS7003;57018;50.278;19.134;2023-03-01T14:14:01;35.00;27.00;19.00
69746;PMS7003;57018;50.278;19.134;2023-03-01T14:16:46;31.00;28.00;14.50
69746;PMS7003;57018;50.278;19.134;2023-03-01T14:19:24;29.50;26.50;15.50
69746;PMS7003;57018;50.278;19.134;2023-03-01T14:22:04;35.00;30.00;20.00
69746;PMS7003;57018;50.278;19.134;2023-03-01T14:24:46;33.00;31.00;18.00
69746;PMS7003;57018;50.278;19.134;2023-03-01T14:27:18;39.00;31.50;20.00
69746;PMS7003;57018;50.278;19.134;2023-03-01T14:29:55;31.00;30.00;19.00
69746;PMS7003;57018;50.278;19.134;2023-03-01T14:32:27;40.00;34.00;21.00
69746;PMS7003;57018;50.278;19.134;2023-03-01T14:34:59;27.00;21.00;12.00
69746;PMS7003;57018;50.278;19.134;2023-03-01T14:37:30;32.00;29.00;18.00
69746;PMS7003;57018;50.278;19.134;2023-03-01T14:40:03;41.00;37.00;23.00
69746;PMS7003;57018;50.278;19.134;2023-03-01T14:42:48;36.00;32.00;21.00
69746;PMS7003;57018;50.278;19.134;2023-03-01T14:45:19;36.00;32.00;22.00
69746;PMS7003;57018;50.278;19.134;2023-03-01T14:47:49;37.00;34.00;22.00
69746;PMS7003;57018;50.278;19.134;2023-03-01T14:50:21;37.00;35.00;19.00
69746;PMS7003;57018;50.278;19.134;2023-03-01T14:52:54;38.00;33.00;21.00
69746;PMS7003;57018;50.278;19.134;2023-03-01T14:55:29;36.00;34.00;23.00
69746;PMS7003;57018;50.278;19.134;2023-03-01T14:58:04;40.50;38.50;24.00
69746;PMS7003;57018;50.278;19.134;2023-03-01T15:00:40;39.00;34.00;24.00
69746;PMS7003;57018;50.278;19.134;2023-03-01T15:03:22;35.00;33.00;23.00
69746;PMS7003;57018;50.278;19.134;2023-03-01T15:05:58;31.50;27.50;20.00
69746;PMS7003;57018;50.278;19.134;2023-03-01T15:08:28;8.00;4.00;0.00
69746;PMS7003;57018;50.278;19.134;2023-03-01T15:13:31;35.00;32.00;18.00
69746;PMS7003;57018;50.278;19.134;2023-03-01T15:16:06;34.00;29.50;15.50
69746;PMS7003;57018;50.278;19.134;2023-03-01T15:18:42;46.00;36.00;24.00
69746;PMS7003;57018;50.278;19.134;2023-03-01T15:21:17;34.50;31.00;19.00
69746;PMS7003;57018;50.278;19.134;2023-03-01T15:26:24;35.00;30.50;19.00
69746;PMS7003;57018;50.278;19.134;2023-03-01T15:28:58;37.00;28.00;19.00
69746;PMS7003;57018;50.278;19.134;2023-03-01T15:31:29;37.00;29.00;18.00
69746;PMS7003;57018;50.278;19.134;2023-03-01T15:34:22;26.00;24.00;16.00
69746;PMS7003;57018;50.278;19.134;2023-03-01T15:36:54;31.00;28.00;22.00
69746;PMS7003;57018;50.278;19.134;2023-03-01T15:39:36;39.00;28.50;19.00
69746;PMS7003;57018;50.278;19.134;2023-03-01T15:42:10;28.00;24.00;19.00
69746;PMS7003;57018;50.278;19.134;2023-03-01T15:44:43;32.00;29.00;18.00
69746;PMS7003;57018;50.278;19.134;2023-03-01T15:47:23;31.00;30.00;17.00
69746;PMS7003;57018;50.278;19.134;2023-03-01T15:49:56;29.50;24.50;18.00
69746;PMS7003;57018;50.278;19.134;2023-03-01T15:52:28;30.00;28.00;18.00
69746;PMS7003;57018;50.278;19.134;2023-03-01T15:55:04;32.00;28.00;17.00
69746;PMS7003;57018;50.278;19.134;2023-03-01T15:57:43;34.00;28.00;17.50
69746;PMS7003;57018;50.278;19.134;2023-03-01T16:00:14;43.00;34.00;19.00
69746;PMS7003;57018;50.278;19.134;2023-03-01T16:02:45;35.00;34.00;20.00
69746;PMS7003;57018;50.278;19.134;2023-03-01T16:05:19;32.00;26.00;17.50
69746;PMS7003;57018;50.278;19.134;2023-03-01T16:07:51;35.00;34.00;19.00
69746;PMS7003;57018;50.278;19.134;2023-03-01T16:10:21;21.50;19.00;12.00
69746;PMS7003;57018;50.278;19.134;2023-03-01T16:12:51;24.00;22.00;12.00
69746;PMS7003;57018;50.278;19.134;2023-03-01T16:15:23;41.00;35.00;18.00
69746;PMS7003;57018;50.278;19.134;2023-03-01T16:17:55;28.50;25.50;17.50
69746;PMS7003;57018;50.278;19.134;2023-03-01T16:20:26;36.00;31.00;18.00
69746;PMS7003;57018;50.278;19.134;2023-03-01T16:22:58;41.00;37.00;21.50
69746;PMS7003;57018;50.278;19.134;2023-03-01T16:25:29;35.00;31.00;21.00
69746;PMS7003;57018;50.278;19.134;2023-03-01T16:28:00;20.50;19.50;10.50
69746;PMS7003;57018;50.278;19.134;2023-03-01T16:30:35;34.00;30.00;20.50
69746;PMS7003;57018;50.278;19.134;2023-03-01T16:33:06;28.50;27.00;12.00
69746;PMS7003;57018;50.278;19.134;2023-03-01T16:35:40;34.50;27.50;17.50
69746;PMS7003;57018;50.278;19.134;2023-03-01T16:38:10;36.00;29.00;19.00
69746;PMS7003;57018;50.278;19.134;2023-03-01T16:40:40;45.50;39.00;25.00
69746;PMS7003;57018;50.278;19.134;2023-03-01T16:43:17;46.00;40.00;25.00
69746;PMS7003;57018;50.278;19.134;2023-03-01T16:45:47;54.00;44.00;29.00
69746;PMS7003;57018;50.278;19.134;2023-03-01T16:48:19;50.67;41.00;26.33
69746;PMS7003;57018;50.278;19.134;2023-03-01T16:50:56;46.00;40.00;27.00
69746;PMS7003;57018;50.278;19.134;2023-03-01T16:53:27;49.50;42.00;28.00
69746;PMS7003;57018;50.278;19.134;2023-03-01T16:55:57;39.00;34.00;21.00
69746;PMS7003;57018;50.278;19.134;2023-03-01T16:58:28;56.00;44.00;26.00
69746;PMS7003;57018;50.278;19.134;2023-03-01T17:01:02;54.50;45.00;28.00
69746;PMS7003;57018;50.278;19.134;2023-03-01T17:03:33;52.00;43.50;27.50